Flight Track Log - Related Links

Times and Time Zones

All times are in EDT time to prevent confusion due to time zone crossing. See the N449ND flight status page for this flight to view local times or setup timezone preferences in your user account.

Time Position Orientation Groundspeed Altitude Reporting Facility
EDT Latitude Longitude Course Direction KTS MPH feet Rate Location/Type
Tue 07:41:13 AM 27.4972 -80.3731 328° Northwest 63 72 200  Level Miami Center
Tue 07:42:14 AM 27.4953 -80.3906 263° West 59 68 900 639 Climbing Miami Center
Tue 07:43:15 AM 27.4911 -80.4078 255° West 58 67 1,500 590 Climbing Miami Center
Tue 07:44:16 AM 27.4900 -80.4231 265° West 51 59 2,100 443 Climbing Miami Center
Tue 07:45:00 AM 27.4975 -80.3726 152° Southeast  Level Estimated
Tue 07:45:17 AM 27.4700 -80.4103 150° Southeast 100 115 2,400  Level Miami Center
Tue 07:46:00 AM 27.4975 -80.3726 328° Northwest  Level Estimated
Tue 07:46:18 AM 27.4525 -80.3728 118° Southeast 123 142 2,900  Level Miami Center
Tue 07:47:19 AM 27.4369 -80.3306 113° Southeast 147 169 3,100 -98 Climbing Miami Center
Tue 07:48:20 AM 27.4569 -80.2994 54° Northeast 131 151 2,700 -492 Descending Miami Center
Tue 07:49:21 AM 27.4850 -80.2814 30° Northeast 116 133 2,100 -295 Descending Miami Center
Tue 07:50:22 AM 27.5083 -80.2511 49° Northeast 119 137 2,100 -49 Level Miami Center
Tue 07:51:23 AM 27.5328 -80.2297 38° Northeast 118 136 2,000  Descending Miami Center
Tue 07:52:24 AM 27.5542 -80.2181 26° Northeast 113 130 2,100 49 Climbing Miami Center
Tue 07:53:25 AM 27.5817 -80.2208 355° North 85 98 2,100 -49 Level Miami Center
Tue 07:54:26 AM 27.5919 -80.2406 300° West 74 85 2,000 -98 Descending Miami Center
Tue 07:55:27 AM 27.5997 -80.2622 292° West 73 84 1,900 -98 Descending Miami Center
Tue 07:56:28 AM 27.6058 -80.2822 289° West 72 83 1,800 -49 Descending Miami Center
Tue 07:57:29 AM 27.6142 -80.3047 293° West 73 84 1,800 -49 Level Miami Center
Tue 07:58:30 AM 27.6206 -80.3236 291° West 66 76 1,700 -293 Descending Miami Center
Tue 07:59:32 AM 27.6278 -80.3428 293° West 66 76 1,200 -488 Descending Miami Center
Tue 08:00:33 AM 27.6356 -80.3647 292° West 67 77 700 -344 Descending Miami Center
Tue 08:01:34 AM 27.6436 -80.3881 291° West 73 84 500 -98 Descending Miami Center
Tue 08:02:35 AM 27.6508 -80.4097 291° West 74 85 500 393 Level Miami Center
Tue 08:03:36 AM 27.6697 -80.4103 359° North 77 89 1,300 689 Climbing Miami Center
Tue 08:04:37 AM 27.6914 -80.4019 19° North 78 90 1,900 541 Climbing Miami Center
Tue 08:05:38 AM 27.7106 -80.3894 30° Northeast 79 91 2,400 492 Climbing Miami Center
Tue 08:06:39 AM 27.7319 -80.3756 30° Northeast 80 92 2,900 295 Climbing Miami Center
Tue 08:07:40 AM 27.7508 -80.3747 North 71 82 3,000 49 Climbing Miami Center
Tue 08:08:41 AM 27.7372 -80.3939 231° Southwest 81 93 3,000  Level Miami Center
Tue 08:09:42 AM 27.7253 -80.4136 236° Southwest 76 87 3,000  Level Miami Center
Tue 08:10:43 AM 27.7122 -80.4344 235° Southwest 76 87 3,000  Level Miami Center
Tue 08:11:44 AM 27.6997 -80.4533 233° Southwest 76 87 3,000  Level Miami Center
Tue 08:12:46 AM 27.6883 -80.4742 238° Southwest 76 87 3,000  Level Miami Center
Tue 08:13:59 AM 27.6706 -80.4908 220° Southwest 84 97 3,000  Level Miami Center
Tue 08:15:00 AM 27.6869 -80.4600 59° Northeast 133 153 3,000  Level Miami Center
Tue 08:16:01 AM 27.6728 -80.4214 112° Southeast 139 160 3,000 148 Level Miami Center
Tue 08:17:02 AM 27.6578 -80.4283 202° Southwest 77 89 3,300 393 Climbing Miami Center
Tue 08:18:03 AM 27.6625 -80.4428 290° West 52 60 3,800 390 Climbing Miami Center
Tue 08:19:05 AM 27.6661 -80.4558 287° West 46 53 4,100 146 Climbing Miami Center
Tue 08:20:06 AM 27.6731 -80.4758 291° West 63 72 4,100 -49 Level Miami Center
Tue 08:21:07 AM 27.6806 -80.4942 295° West 63 72 4,000 -49 Descending Miami Center
Tue 08:22:08 AM 27.6992 -80.4675 52° Northeast 133 153 4,000  Level Miami Center
Tue 08:23:09 AM 27.6778 -80.4444 136° Southeast 108 124 4,000  Level Miami Center
Tue 08:24:11 AM 27.6728 -80.4606 251° West 57 66 4,000  Level Miami Center
Tue 08:25:12 AM 27.6733 -80.4761 272° West 59 68 4,000  Level Miami Center
Tue 08:26:13 AM 27.6806 -80.4939 295° West 59 68 4,000 49 Level Miami Center
Tue 08:27:14 AM 27.7017 -80.4831 24° Northeast 118 136 4,100 49 Climbing Miami Center
Tue 08:28:16 AM 27.6883 -80.4461 112° Southeast 133 153 4,100 -49 Level Miami Center
Tue 08:29:17 AM 27.6839 -80.4631 254° West 65 75 4,000 -49 Descending Miami Center
Tue 08:30:18 AM 27.6756 -80.4722 224° Southwest 91 105 4,000  Level Miami Center
Tue 08:31:20 AM 27.6658 -80.4333 106° East 146 168 4,000 49 Level Miami Center
Tue 08:32:21 AM 27.6678 -80.3897 87° East 153 176 4,100  Climbing Miami Center
Tue 08:33:22 AM 27.6675 -80.3286 90° East 157 181 4,000  Descending Miami Center
Tue 08:34:24 AM 27.6669 -80.2756 91° East 160 184 4,100 -195 Climbing Miami Center
Tue 08:35:25 AM 27.6678 -80.2272 89° East 160 184 3,600 -683 Descending Miami Center
Tue 08:36:27 AM 27.6411 -80.2025 141° Southeast 139 160 2,700 -732 Descending Miami Center
Tue 08:37:28 AM 27.6133 -80.2139 200° South 101 116 2,100 -295 Descending Miami Center
Tue 08:38:29 AM 27.5953 -80.2286 216° Southwest 91 105 2,100 -98 Level Miami Center
Tue 08:39:31 AM 27.5981 -80.2506 278° West 70 81 1,900 -244 Descending Miami Center
Tue 08:40:32 AM 27.6042 -80.2711 289° West 68 78 1,600 -146 Descending Miami Center
Tue 08:41:34 AM 27.6114 -80.2922 291° West 68 78 1,600  Level Miami Center
Tue 08:42:35 AM 27.6181 -80.3117 291° West 68 78 1,600  Level Miami Center
Tue 08:43:37 AM 27.6244 -80.3317 290° West 68 78 1,600 -293 Level Miami Center
Tue 08:44:38 AM 27.6319 -80.3519 293° West 68 78 1,000 -488 Descending Miami Center
Tue 08:45:40 AM 27.6397 -80.3731 293° West 69 79 600 -387 Descending Miami Center

Login

Don't have an account? Register now (free) for customized features, flight alerts, and more!